createdAt,value
2022-11-14T00:00:45.134Z,102190.25
2022-11-14T00:03:31.152Z,102186.72
2022-11-14T00:06:16.670Z,102192.28
2022-11-14T00:09:02.408Z,102189.16
2022-11-14T00:11:47.972Z,102191.13
2022-11-14T00:14:35.167Z,102198.66
2022-11-14T00:17:20.973Z,102195.50
2022-11-14T00:20:08.590Z,102197.13
2022-11-14T00:22:54.547Z,102194.78
2022-11-14T00:25:40.159Z,102185.63
2022-11-14T00:28:25.857Z,102180.50
2022-11-14T00:31:13.349Z,102186.06
2022-11-14T00:33:59.006Z,102170.56
2022-11-14T00:36:44.536Z,102158.28
2022-11-14T00:39:30.292Z,102157.09
2022-11-14T00:42:15.869Z,102149.56
2022-11-14T00:45:01.476Z,102136.47
2022-11-14T00:47:48.719Z,102128.16
2022-11-14T00:50:34.239Z,102130.53
2022-11-14T00:53:19.924Z,102122.59
2022-11-14T00:56:06.207Z,102116.28
2022-11-14T00:58:51.725Z,102119.44
2022-11-14T01:01:37.429Z,102115.47
2022-11-14T01:04:24.488Z,102110.75
2022-11-14T01:07:10.110Z,102102.41
2022-11-14T01:09:55.922Z,102089.66
2022-11-14T01:12:41.533Z,102079.34
2022-11-14T01:15:27.191Z,102074.63
2022-11-14T01:18:14.923Z,102061.91
2022-11-14T01:21:05.153Z,102063.09
2022-11-14T01:23:51.153Z,102052.81
2022-11-14T01:26:36.901Z,102053.56
2022-11-14T01:29:23.367Z,102048.03
2022-11-14T01:32:08.922Z,102046.88
2022-11-14T01:34:54.732Z,102046.47
2022-11-14T01:37:41.818Z,102030.16
2022-11-14T01:40:28.264Z,102020.63
2022-11-14T01:43:28.192Z,102024.25
2022-11-14T01:46:17.317Z,102015.47
2022-11-14T01:49:06.573Z,102010.31
2022-11-14T01:51:59.724Z,102002.78
2022-11-14T01:54:49.967Z,101991.31
2022-11-14T01:57:38.867Z,101984.53
2022-11-14T02:00:24.535Z,101981.75
2022-11-14T02:03:12.355Z,101970.25
2022-11-14T02:05:59.040Z,101958.75
2022-11-14T02:08:45.359Z,101954.38
2022-11-14T02:11:36.354Z,101949.63
2022-11-14T02:14:22.281Z,101939.31
2022-11-14T02:17:28.470Z,101931.41
2022-11-14T02:20:24.208Z,101920.66
2022-11-14T02:23:11.410Z,101907.97
2022-11-14T02:25:57.102Z,101901.22
2022-11-14T02:28:42.693Z,101898.06
2022-11-14T02:31:28.279Z,101892.91
2022-11-14T02:34:14.001Z,101875.06
2022-11-14T02:37:00.982Z,101879.81
2022-11-14T02:39:46.937Z,101869.50
2022-11-14T02:42:32.572Z,101865.13
2022-11-14T02:45:18.427Z,101859.97
2022-11-14T02:48:05.304Z,101862.34
2022-11-14T02:50:50.997Z,101851.66
2022-11-14T02:53:38.219Z,101852.06
2022-11-14T02:56:24.476Z,101841.75
2022-11-14T02:59:10.227Z,101840.19
2022-11-14T03:01:56.296Z,101833.44
2022-11-14T03:04:42.410Z,101829.84
2022-11-14T03:07:28.038Z,101820.38
2022-11-14T03:10:15.562Z,101820.75
2022-11-14T03:13:01.348Z,101811.63
2022-11-14T03:15:47.040Z,101805.28
2022-11-14T03:18:32.917Z,101806.09
2022-11-14T03:21:21.015Z,101811.25
2022-11-14T03:24:07.227Z,101797.38
2022-11-14T03:26:54.168Z,101798.16
2022-11-14T03:29:39.976Z,101798.56
2022-11-14T03:32:25.971Z,101795.78
2022-11-14T03:35:11.915Z,101794.19
2022-11-14T03:37:57.499Z,101802.13
2022-11-14T03:40:43.803Z,101804.50
2022-11-14T03:43:33.251Z,101799.75
2022-11-14T03:46:19.036Z,101792.63
2022-11-14T03:49:04.838Z,101791.41
2022-11-14T03:51:51.020Z,101791.00
2022-11-14T03:54:36.715Z,101784.69
2022-11-14T03:57:22.484Z,101792.63
2022-11-14T04:00:10.673Z,101770.41
2022-11-14T04:02:56.709Z,101779.16
2022-11-14T04:05:43.817Z,101772.41
2022-11-14T04:08:30.352Z,101771.19
2022-11-14T04:11:16.354Z,101761.69
2022-11-14T04:14:02.206Z,101760.91
2022-11-14T04:16:49.396Z,101758.53
2022-11-14T04:19:35.206Z,101752.97
2022-11-14T04:22:21.384Z,101755.34
2022-11-14T04:25:08.091Z,101761.72
2022-11-14T04:27:54.118Z,101751.00
2022-11-14T04:30:40.455Z,101758.13
2022-11-14T04:33:27.549Z,101763.69
2022-11-14T04:36:13.637Z,101753.38
2022-11-14T04:38:59.401Z,101747.44
2022-11-14T04:41:45.054Z,101748.22
2022-11-14T04:44:31.048Z,101739.91
2022-11-14T04:47:16.774Z,101744.25
2022-11-14T04:50:04.740Z,101741.50
2022-11-14T04:52:52.045Z,101747.44
2022-11-14T04:55:38.002Z,101735.19
2022-11-14T04:58:24.623Z,101741.50
2022-11-14T05:01:11.783Z,101724.50
2022-11-14T05:03:57.633Z,101727.63
2022-11-14T05:06:44.590Z,101727.25
2022-11-14T05:09:30.717Z,101717.34
2022-11-14T05:12:16.311Z,101722.06
2022-11-14T05:15:01.915Z,101719.31
2022-11-14T05:17:47.584Z,101712.59
2022-11-14T05:20:33.277Z,101706.66
2022-11-14T05:23:22.627Z,101706.66
2022-11-14T05:26:11.345Z,101707.06
2022-11-14T05:28:57.003Z,101711.81
2022-11-14T05:31:42.573Z,101711.78
2022-11-14T05:34:28.388Z,101716.53
2022-11-14T05:37:14.303Z,101705.44
2022-11-14T05:40:01.582Z,101708.22
2022-11-14T05:42:47.234Z,101709.03
2022-11-14T05:45:32.847Z,101701.13
2022-11-14T05:48:18.977Z,101700.72
2022-11-14T05:51:06.804Z,101686.44
2022-11-14T05:53:52.621Z,101689.63
2022-11-14T05:56:39.619Z,101693.59
2022-11-14T05:59:25.153Z,101688.84
2022-11-14T06:02:10.761Z,101688.84
2022-11-14T06:04:56.440Z,101685.28
2022-11-14T06:07:42.074Z,101683.69
2022-11-14T06:10:28.266Z,101684.09
2022-11-14T06:13:15.294Z,101683.31
2022-11-14T06:16:01.699Z,101685.69
2022-11-14T06:18:47.863Z,101686.09
2022-11-14T06:21:33.748Z,101682.91
2022-11-14T06:24:19.542Z,101687.25
2022-11-14T06:27:05.475Z,101701.50
2022-11-14T06:29:52.617Z,101685.69
2022-11-14T06:32:38.549Z,101689.63
2022-11-14T06:35:24.117Z,101684.88
2022-11-14T06:38:09.577Z,101699.16
2022-11-14T06:41:01.999Z,101697.19
2022-11-14T06:43:49.630Z,101686.47
2022-11-14T06:46:36.932Z,101688.84
2022-11-14T06:49:22.682Z,101692.81
2022-11-14T06:52:08.532Z,101698.34
2022-11-14T06:54:54.272Z,101699.94
2022-11-14T06:57:39.887Z,101713.00
2022-11-14T07:00:25.477Z,101704.69
2022-11-14T07:03:12.407Z,101715.78
2022-11-14T07:05:58.436Z,101717.34
2022-11-14T07:08:44.447Z,101710.66
2022-11-14T07:11:30.022Z,101712.63
2022-11-14T07:14:15.648Z,101720.94
2022-11-14T07:17:01.272Z,101720.94
2022-11-14T07:19:48.164Z,101722.13
2022-11-14T07:22:33.933Z,101724.50
2022-11-14T07:25:19.580Z,101721.31
2022-11-14T07:28:06.151Z,101730.81
2022-11-14T07:30:51.847Z,101731.22
2022-11-14T07:33:37.374Z,101720.91
2022-11-14T07:36:24.519Z,101719.31
2022-11-14T07:39:10.242Z,101713.41
2022-11-14T07:41:56.220Z,101714.16
2022-11-14T07:44:41.879Z,101715.38
2022-11-14T07:47:27.341Z,101698.72
2022-11-14T07:50:17.609Z,101711.81
2022-11-14T07:53:07.206Z,101701.50
2022-11-14T07:55:52.736Z,101703.88
2022-11-14T07:58:40.092Z,101708.22
2022-11-14T08:01:25.957Z,101699.13
2022-11-14T08:04:11.574Z,101701.50
2022-11-14T08:06:57.119Z,101696.34
2022-11-14T08:09:44.014Z,101701.50
2022-11-14T08:12:29.736Z,101686.00
2022-11-14T08:15:15.330Z,101694.72
2022-11-14T08:18:01.855Z,101695.53
2022-11-14T08:20:47.771Z,101687.19
2022-11-14T08:23:33.647Z,101680.84
2022-11-14T08:26:20.560Z,101684.78
2022-11-14T08:29:06.200Z,101676.44
2022-11-14T08:31:54.531Z,101671.25
2022-11-14T08:34:44.231Z,101670.88
2022-11-14T08:37:29.912Z,101670.81
2022-11-14T08:40:15.967Z,101669.63
2022-11-14T08:43:03.118Z,101656.16
2022-11-14T08:45:48.948Z,101659.66
2022-11-14T08:48:34.552Z,101662.00
2022-11-14T08:51:20.544Z,101664.00
2022-11-14T08:54:06.057Z,101665.56
2022-11-14T08:56:51.720Z,101656.50
2022-11-14T08:59:38.843Z,101652.09
2022-11-14T09:02:24.481Z,101652.47
2022-11-14T09:05:10.332Z,101643.69
2022-11-14T09:07:55.957Z,101642.56
2022-11-14T09:10:41.543Z,101645.00
2022-11-14T09:13:27.305Z,101637.09
2022-11-14T09:16:14.519Z,101650.97
2022-11-14T09:19:00.432Z,101641.81
2022-11-14T09:21:46.163Z,101640.59
2022-11-14T09:24:31.845Z,101641.38
2022-11-14T09:27:17.944Z,101631.44
2022-11-14T09:30:04.729Z,101633.78
2022-11-14T09:32:51.519Z,101638.16
2022-11-14T09:35:37.312Z,101627.50
2022-11-14T09:38:23.376Z,101624.25
2022-11-14T09:41:22.741Z,101627.47
2022-11-14T09:44:33.597Z,101627.03
2022-11-14T09:47:23.244Z,101626.66
2022-11-14T09:50:15.729Z,101621.13
2022-11-14T09:53:06.532Z,101618.34
2022-11-14T09:55:52.473Z,101619.56
2022-11-14T09:58:40.483Z,101614.03
2022-11-14T10:01:38.017Z,101610.38
2022-11-14T10:04:36.771Z,101616.25
2022-11-14T10:07:36.489Z,101605.16
2022-11-14T10:10:39.006Z,101606.59
2022-11-14T10:13:45.909Z,101598.25
2022-11-14T10:16:40.792Z,101606.50
2022-11-14T10:19:32.775Z,101594.22
2022-11-14T10:22:37.623Z,101592.84
2022-11-14T10:25:26.557Z,101584.19
2022-11-14T10:28:29.489Z,101563.09
2022-11-14T10:31:28.408Z,101565.81
2022-11-14T10:34:23.637Z,101561.38
2022-11-14T10:37:18.347Z,101558.25
2022-11-14T10:40:15.552Z,101555.03
2022-11-14T10:43:07.132Z,101545.31
2022-11-14T10:45:57.173Z,101537.81
2022-11-14T10:48:44.516Z,101543.69
2022-11-14T10:51:35.300Z,101544.75
2022-11-14T10:54:26.169Z,101535.38
2022-11-14T10:57:18.729Z,101537.59
2022-11-14T11:00:20.346Z,101539.78
2022-11-14T11:03:05.918Z,101524.59
2022-11-14T11:05:52.976Z,101511.41
2022-11-14T11:08:51.523Z,101499.59
2022-11-14T11:11:39.300Z,101505.13
2022-11-14T11:14:27.024Z,101495.16
2022-11-14T11:17:20.247Z,101492.38
2022-11-14T11:20:31.333Z,101481.34
2022-11-14T11:23:20.250Z,101480.59
2022-11-14T11:26:08.601Z,101497.91
2022-11-14T11:29:15.063Z,101498.44
2022-11-14T11:32:02.000Z,101499.78
2022-11-14T11:34:48.131Z,101489.47
2022-11-14T11:37:38.924Z,101483.75
2022-11-14T11:40:26.933Z,101472.91
2022-11-14T11:43:38.393Z,101473.38
2022-11-14T11:46:32.169Z,101477.97
2022-11-14T11:49:28.216Z,101481.34
2022-11-14T11:52:19.864Z,101484.31
2022-11-14T11:55:17.250Z,101478.03
2022-11-14T11:58:06.429Z,101473.31
2022-11-14T12:00:53.247Z,101457.41
2022-11-14T12:03:39.445Z,101469.72
2022-11-14T12:06:30.419Z,101468.19
2022-11-14T12:09:21.369Z,101465.19
2022-11-14T12:12:14.790Z,101444.22
2022-11-14T12:15:10.784Z,101463.59
2022-11-14T12:18:17.964Z,101465.91
2022-11-14T12:21:12.428Z,101458.13
2022-11-14T12:24:26.197Z,101457.63
2022-11-14T12:27:37.042Z,101443.41
2022-11-14T12:30:24.531Z,101431.00
2022-11-14T12:33:16.181Z,101443.16
2022-11-14T12:36:04.294Z,101437.94
2022-11-14T12:38:53.751Z,101433.78
2022-11-14T12:41:41.571Z,101430.81
2022-11-14T12:44:36.845Z,101434.78
2022-11-14T12:47:24.477Z,101431.81
2022-11-14T12:50:41.722Z,101411.25
2022-11-14T12:53:45.686Z,101424.09
2022-11-14T12:57:03.971Z,101398.66
2022-11-14T13:00:01.031Z,101421.69
2022-11-14T13:03:23.921Z,101412.50
2022-11-14T13:06:17.319Z,101421.06
2022-11-14T13:09:20.363Z,101413.63
2022-11-14T13:12:26.618Z,101413.13
2022-11-14T13:15:25.655Z,101405.56
2022-11-14T13:18:18.417Z,101402.91
2022-11-14T13:21:06.155Z,101394.97
2022-11-14T13:23:58.233Z,101390.66
2022-11-14T13:26:45.910Z,101386.13
2022-11-14T13:29:55.718Z,101374.06
2022-11-14T13:33:03.803Z,101376.34
2022-11-14T13:35:59.518Z,101362.91
2022-11-14T13:39:20.552Z,101358.81
2022-11-14T13:42:20.319Z,101363.78
2022-11-14T13:45:48.725Z,101352.03
2022-11-14T13:48:55.767Z,101357.34
2022-11-14T13:51:44.332Z,101355.69
2022-11-14T13:54:30.592Z,101351.75
2022-11-14T13:57:31.837Z,101349.44
2022-11-14T14:00:21.051Z,101352.69
2022-11-14T14:03:29.029Z,101342.84
2022-11-14T14:06:30.905Z,101337.03
2022-11-14T14:09:25.425Z,101342.63
2022-11-14T14:12:48.891Z,101336.16
2022-11-14T14:15:41.714Z,101336.06
2022-11-14T14:18:43.362Z,101340.44
2022-11-14T14:21:43.372Z,101335.69
2022-11-14T14:24:44.064Z,101323.84
2022-11-14T14:27:36.663Z,101330.78
2022-11-14T14:30:22.497Z,101334.84
2022-11-14T14:33:15.149Z,101323.53
2022-11-14T14:36:00.991Z,101330.69
2022-11-14T14:38:48.235Z,101330.88
2022-11-14T14:41:35.059Z,101329.59
2022-11-14T14:44:25.477Z,101320.22
2022-11-14T14:47:18.424Z,101314.44
2022-11-14T14:50:13.779Z,101310.50
2022-11-14T14:53:01.624Z,101310.53
2022-11-14T14:55:55.120Z,101302.53
2022-11-14T14:58:40.640Z,101300.16
2022-11-14T15:01:32.911Z,101297.19
2022-11-14T15:04:21.207Z,101293.25
2022-11-14T15:07:20.175Z,101285.34
2022-11-14T15:10:07.321Z,101291.16
2022-11-14T15:12:55.426Z,101280.97
2022-11-14T15:15:41.831Z,101277.31
2022-11-14T15:18:31.321Z,101271.59
2022-11-14T15:21:25.232Z,101273.72
2022-11-14T15:24:15.410Z,101267.63
2022-11-14T15:27:05.020Z,101263.00
2022-11-14T15:29:57.454Z,101262.22
2022-11-14T15:32:48.800Z,101266.84
2022-11-14T15:35:36.135Z,101257.38
2022-11-14T15:38:43.068Z,101270.97
2022-11-14T15:41:29.491Z,101277.72
2022-11-14T15:44:30.087Z,101279.03
2022-11-14T15:47:22.963Z,101280.28
2022-11-14T15:50:27.711Z,101291.75
2022-11-14T15:53:21.385Z,101281.94
2022-11-14T15:56:10.880Z,101303.38
2022-11-14T15:58:56.767Z,101304.97
2022-11-14T16:01:43.955Z,101319.78
2022-11-14T16:04:34.032Z,101307.94
2022-11-14T16:07:20.401Z,101314.34
2022-11-14T16:10:14.458Z,101311.63
2022-11-14T16:13:00.134Z,101313.25
2022-11-14T16:15:45.763Z,101305.34
2022-11-14T16:18:31.470Z,101307.72
2022-11-14T16:21:18.835Z,101318.88
2022-11-14T16:24:05.444Z,101320.47
2022-11-14T16:26:50.900Z,101332.41
2022-11-14T16:29:36.522Z,101338.38
2022-11-14T16:32:21.935Z,101351.84
2022-11-14T16:35:12.224Z,101349.09
2022-11-14T16:37:59.112Z,101353.91
2022-11-14T16:40:44.989Z,101361.03
2022-11-14T16:43:31.075Z,101367.41
2022-11-14T16:46:19.382Z,101365.81
2022-11-14T16:49:05.143Z,101374.53
2022-11-14T16:51:51.701Z,101376.94
2022-11-14T16:54:38.709Z,101392.78
2022-11-14T16:57:24.934Z,101399.16
2022-11-14T17:00:12.613Z,101405.88
2022-11-14T17:02:58.620Z,101403.53
2022-11-14T17:05:45.182Z,101403.09
2022-11-14T17:08:30.796Z,101420.56
2022-11-14T17:11:17.832Z,101419.78
2022-11-14T17:14:03.596Z,101419.00
2022-11-14T17:16:49.480Z,101419.78
2022-11-14T17:19:35.391Z,101431.28
2022-11-14T17:22:20.954Z,101438.81
2022-11-14T17:25:07.098Z,101439.56
2022-11-14T17:27:54.009Z,101448.28
2022-11-14T17:30:40.779Z,101448.28
2022-11-14T17:33:26.582Z,101449.47
2022-11-14T17:36:12.325Z,101447.41
2022-11-14T17:38:58.418Z,101448.63
2022-11-14T17:41:44.418Z,101443.94
2022-11-14T17:44:31.625Z,101450.63
2022-11-14T17:47:17.505Z,101449.06
2022-11-14T17:50:04.032Z,101453.81
2022-11-14T17:52:49.654Z,101458.53
2022-11-14T17:55:35.434Z,101464.88
2022-11-14T17:58:21.431Z,101457.75
2022-11-14T18:01:11.278Z,101465.69
2022-11-14T18:04:01.614Z,101461.72
2022-11-14T18:06:50.486Z,101471.22
2022-11-14T18:09:36.199Z,101475.97
2022-11-14T18:12:21.790Z,101473.59
2022-11-14T18:15:09.151Z,101475.97
2022-11-14T18:17:56.532Z,101475.97
2022-11-14T18:20:42.225Z,101473.59
2022-11-14T18:23:27.976Z,101479.53
2022-11-14T18:26:15.151Z,101476.38
2022-11-14T18:29:01.631Z,101474.41
2022-11-14T18:31:47.263Z,101480.72
2022-11-14T18:34:34.295Z,101474.38
2022-11-14T18:37:20.158Z,101475.53
2022-11-14T18:40:07.672Z,101466.03
2022-11-14T18:42:55.569Z,101464.88
2022-11-14T18:45:41.208Z,101456.16
2022-11-14T18:48:26.890Z,101462.13
2022-11-14T18:51:15.664Z,101459.34
2022-11-14T18:54:01.499Z,101456.16
2022-11-14T18:56:47.281Z,101454.56
2022-11-14T18:59:32.859Z,101449.81
2022-11-14T19:02:18.544Z,101440.72
2022-11-14T19:05:04.760Z,101437.16
2022-11-14T19:07:52.916Z,101438.72
2022-11-14T19:10:38.399Z,101440.31
2022-11-14T19:13:24.553Z,101422.09
2022-11-14T19:16:10.721Z,101424.44
2022-11-14T19:18:56.278Z,101414.16
2022-11-14T19:21:42.057Z,101409.84
2022-11-14T19:24:29.181Z,101402.66
2022-11-14T19:27:14.827Z,101391.94
2022-11-14T19:30:00.413Z,101377.72
2022-11-14T19:32:45.982Z,101369.41
2022-11-14T19:35:31.667Z,101359.50
2022-11-14T19:38:17.132Z,101356.69
2022-11-14T19:41:07.830Z,101349.91
2022-11-14T19:43:54.820Z,101343.13
2022-11-14T19:46:44.331Z,101335.56
2022-11-14T19:49:33.244Z,101322.88
2022-11-14T19:52:18.780Z,101322.47
2022-11-14T19:55:05.048Z,101318.50
2022-11-14T19:57:52.030Z,101293.50
2022-11-14T20:00:37.625Z,101295.81
2022-11-14T20:03:23.381Z,101284.72
2022-11-14T20:06:19.435Z,101274.41
2022-11-14T20:09:07.680Z,101257.41
2022-11-14T20:11:53.783Z,101250.69
2022-11-14T20:14:41.102Z,101252.31
2022-11-14T20:17:26.852Z,101238.13
2022-11-14T20:20:12.686Z,101238.13
2022-11-14T20:22:58.360Z,101225.09
2022-11-14T20:25:44.108Z,101220.75
2022-11-14T20:28:29.789Z,101225.06
2022-11-14T20:31:18.823Z,101214.81
2022-11-14T20:34:04.839Z,101209.66
2022-11-14T20:37:09.798Z,101213.19
2022-11-14T20:39:56.519Z,101200.19
2022-11-14T20:42:42.216Z,101199.38
2022-11-14T20:45:28.417Z,101184.34
2022-11-14T20:48:15.749Z,101180.38
2022-11-14T20:51:02.940Z,101186.31
2022-11-14T20:53:50.039Z,101179.19
2022-11-14T20:56:36.334Z,101168.00
2022-11-14T20:59:22.427Z,101171.16
2022-11-14T21:02:11.199Z,101165.16
2022-11-14T21:04:58.740Z,101173.78
2022-11-14T21:07:44.830Z,101167.34
2022-11-14T21:10:30.657Z,101160.53
2022-11-14T21:13:19.154Z,101149.75
2022-11-14T21:16:07.778Z,101140.19
2022-11-14T21:18:54.268Z,101142.47
2022-11-14T21:21:41.497Z,101122.25
2022-11-14T21:24:27.383Z,101119.47
2022-11-14T21:27:13.340Z,101115.09
2022-11-14T21:29:58.915Z,101102.41
2022-11-14T21:32:44.921Z,101101.66
2022-11-14T21:35:31.009Z,101109.13
2022-11-14T21:38:17.982Z,101096.44
2022-11-14T21:41:04.472Z,101096.38
2022-11-14T21:43:53.550Z,101085.69
2022-11-14T21:46:39.375Z,101087.63
2022-11-14T21:49:24.959Z,101090.47
2022-11-14T21:52:10.760Z,101082.50
2022-11-14T21:54:57.709Z,101080.06
2022-11-14T21:57:43.502Z,101068.16
2022-11-14T22:00:29.118Z,101068.16
2022-11-14T22:03:30.382Z,101066.91
2022-11-14T22:06:16.374Z,101062.91
2022-11-14T22:09:02.027Z,101063.69
2022-11-14T22:11:49.075Z,101062.84
2022-11-14T22:14:34.793Z,101066.00
2022-11-14T22:17:20.544Z,101062.03
2022-11-14T22:20:07.862Z,101065.19
2022-11-14T22:22:54.044Z,101060.41
2022-11-14T22:25:39.905Z,101054.81
2022-11-14T22:28:28.931Z,101053.97
2022-11-14T22:31:16.809Z,101054.81
2022-11-14T22:34:02.802Z,101051.59
2022-11-14T22:36:48.766Z,101050.78
2022-11-14T22:39:34.359Z,101045.56
2022-11-14T22:42:20.181Z,101042.03
2022-11-14T22:45:09.267Z,101036.47
2022-11-14T22:47:57.223Z,101040.03
2022-11-14T22:50:43.146Z,101041.22
2022-11-14T22:53:29.948Z,101031.69
2022-11-14T22:56:17.476Z,101025.38
2022-11-14T22:59:03.587Z,101026.13
2022-11-14T23:01:50.953Z,101023.78
2022-11-14T23:04:36.838Z,101019.88
2022-11-14T23:07:22.547Z,101029.75
2022-11-14T23:10:09.044Z,101015.13
2022-11-14T23:12:54.901Z,101027.47
2022-11-14T23:15:46.861Z,101022.34
2022-11-14T23:18:33.889Z,101019.19
2022-11-14T23:21:22.607Z,101024.38
2022-11-14T23:24:13.568Z,101024.84
2022-11-14T23:26:59.258Z,101032.78
2022-11-14T23:29:44.921Z,101026.16
2022-11-14T23:32:30.807Z,101019.03
2022-11-14T23:35:17.833Z,101023.38
2022-11-14T23:38:04.403Z,101027.34
2022-11-14T23:40:53.131Z,101024.22
2022-11-14T23:43:39.004Z,101021.91
2022-11-14T23:46:24.722Z,101030.66
2022-11-14T23:49:10.683Z,101024.28
2022-11-14T23:51:57.677Z,101030.97
2022-11-14T23:54:43.209Z,101033.00
2022-11-14T23:57:28.859Z,101029.94
